マイアミ の空港の天気 - METARとTAF

マイアミ国際空港 ( KMIA / MIA ) - アメリカ フロリダ州マイアミ
飛行場実況気象(Metar)
観測時間01/19 05:53 EST (01/19 10:53 UTC)
風向・風速静穏 0m/s
視程10km以上
天気現象
少しの雲 雲底高度 850m
少しの雲 雲底高度 7620m
気温17.2℃
湿度93%
気圧1018.2hPa
METARKMIA 191053Z 00000KT 10SM FEW028 FEW250 17/16 A3007 RMK AO2 SLP182 T01720161
過去の天気等 Google飛行場航空写真 Wunderground天気予報

過去48時間のMETAR

飛行場予報(TAF)
発表時間: 1/19 05:07 EST (1/19 10:07 UTC)
予報対象時間: 19日5時 EST ~ 20日7時 EST
風向・風速静穏
視程10km以上
少しの雲 雲底高度 910m
少しの雲 雲底高度 7620m
19日9時 EST から
風向・風速南東 3m/s
視程10km以上
全天の4割程度の雲 雲底高度 7320m
19日11時 EST から
風向・風速南東 6m/s
視程10km以上
全天の4割程度の雲 雲底高度 7620m
19日19時 EST から
風向・風速南南東 4m/s
視程10km以上
全天の4割程度の雲 雲底高度 3050m
全天の4割程度の雲 雲底高度 7620m
20日1時 EST から
風向・風速南 3m/s
視程10km以上
全天の4割程度の雲 雲底高度 3050m
全天の8割程度の雲 雲底高度 7620m
20日4時 EST から
風向・風速南南西 4m/s
視程10km以上
天気現象周辺でしゅう雨
全天の4割程度の雲 雲底高度 1220m
全天の8割程度の雲 雲底高度 1830m
KMIA 191007Z 1910/2012 00000KT P6SM FEW030 FEW250
FM191400 14005KT P6SM SCT240
FM191600 14012KT P6SM SCT250
FM200000 15008KT P6SM SCT100 SCT250
FM200600 19006KT P6SM SCT100 BKN250
FM200900 21008KT P6SM VCSH SCT040 BKN060